Time;durP1;ratioP1;P1;durP2;ratioP2;P2;SDS_P1;SDS_P2;PMS_P1;PMS_P2;Temp;Humidity;BMP_temperature;BMP_pressure;BME280_temperature;BME280_humidity;BME280_pressure;Samples;Min_cycle;Max_cycle;Signal;HPM_P1;HPM_P2
2022/04/02 00:01:30;;;;;;;12.38;5.80;;;;;;;;;;5071048;28;20059;-65
2022/04/02 00:03:56;;;;;;;12.13;5.00;;;;;;;;;;5089437;28;20056;-65
2022/04/02 00:06:22;;;;;;;13.43;5.07;;;;;;;;;;5087286;28;20143;-65
2022/04/02 00:08:48;;;;;;;12.73;5.38;;;;;;;;;;5087802;28;20429;-66
2022/04/02 00:11:14;;;;;;;13.38;5.82;;;;;;;;;;5088880;28;20047;-65
2022/04/02 00:13:40;;;;;;;12.50;5.35;;;;;;;;;;5089392;28;20048;-66
2022/04/02 00:16:07;;;;;;;13.07;4.95;;;;;;;;;;5088834;28;20062;-65
2022/04/02 00:18:34;;;;;;;13.13;5.18;;;;;;;;;;5089357;28;20074;-65
2022/04/02 00:21:00;;;;;;;12.05;5.05;;;;;;;;;;5087166;28;20490;-65
2022/04/02 00:23:43;;;;;;;12.82;5.05;;;;;;;;;;5087963;28;20128;-65
2022/04/02 00:26:10;;;;;;;11.88;4.90;;;;;;;;;;5088462;28;20052;-65
2022/04/02 00:28:37;;;;;;;21.17;5.18;;;;;;;;;;5088978;28;20048;-65
2022/04/02 00:31:03;;;;;;;11.55;5.25;;;;;;;;;;5088580;28;20110;-65
2022/04/02 00:33:30;;;;;;;13.10;5.28;;;;;;;;;;5089039;28;20051;-65
2022/04/02 00:36:00;;;;;;;10.95;4.55;;;;;;;;;;5087523;28;20129;-65
2022/04/02 00:38:26;;;;;;;11.60;4.63;;;;;;;;;;5088259;28;20360;-65
2022/04/02 00:40:52;;;;;;;13.85;4.70;;;;;;;;;;5087949;28;20083;-65
2022/04/02 00:43:24;;;;;;;12.38;5.07;;;;;;;;;;5086606;28;20056;-65
2022/04/02 00:45:51;;;;;;;11.13;4.88;;;;;;;;;;5087277;28;20119;-65
2022/04/02 00:48:18;;;;;;;12.65;5.30;;;;;;;;;;5087827;28;20494;-65
2022/04/02 00:50:48;;;;;;;13.80;5.45;;;;;;;;;;5088586;28;20051;-65
2022/04/02 00:53:15;;;;;;;13.10;4.93;;;;;;;;;;5088141;28;20128;-65
2022/04/02 00:55:45;;;;;;;24.98;5.50;;;;;;;;;;5088771;28;20059;-65
2022/04/02 00:58:12;;;;;;;12.18;5.30;;;;;;;;;;5092388;28;20056;-65
2022/04/02 01:00:37;;;;;;;;;;;;;;;;;;5093042;28;20055;-64
2022/04/02 01:03:04;;;;;;;10.50;4.82;;;;;;;;;;5091502;28;19991;-65
2022/04/02 01:05:30;;;;;;;13.10;4.97;;;;;;;;;;5092760;28;20043;-65
2022/04/02 01:07:57;;;;;;;12.48;5.25;;;;;;;;;;5091475;28;20154;-65
2022/04/02 01:10:23;;;;;;;13.27;5.32;;;;;;;;;;5092274;28;20396;-64
2022/04/02 01:12:50;;;;;;;11.98;5.07;;;;;;;;;;5092472;28;20436;-64
2022/04/02 01:15:16;;;;;;;11.65;4.78;;;;;;;;;;5092043;28;20086;-65
2022/04/02 01:17:42;;;;;;;11.43;4.70;;;;;;;;;;5092204;28;20440;-65
2022/04/02 01:20:12;;;;;;;11.75;5.03;;;;;;;;;;5090285;28;20040;-65
2022/04/02 01:22:38;;;;;;;19.17;5.50;;;;;;;;;;5092226;28;20051;-65
2022/04/02 01:25:05;;;;;;;13.18;5.13;;;;;;;;;;5091920;28;20116;-65
2022/04/02 01:27:31;;;;;;;14.25;4.93;;;;;;;;;;5091642;28;20055;-65
2022/04/02 01:29:57;;;;;;;11.23;4.55;;;;;;;;;;5090820;28;20119;-65
2022/04/02 01:32:23;;;;;;;11.15;4.50;;;;;;;;;;5091751;28;20048;-65
2022/04/02 01:34:49;;;;;;;12.27;4.95;;;;;;;;;;5092281;28;20482;-65
2022/04/02 01:37:17;;;;;;;10.32;4.93;;;;;;;;;;5090118;28;20040;-65
2022/04/02 01:39:44;;;;;;;11.88;5.28;;;;;;;;;;5091802;28;20040;-65
2022/04/02 01:42:10;;;;;;;13.60;5.03;;;;;;;;;;5091573;28;20151;-66
2022/04/02 01:44:36;;;;;;;13.63;4.78;;;;;;;;;;5090552;28;20056;-66
2022/04/02 01:47:03;;;;;;;12.63;4.68;;;;;;;;;;5090268;28;20353;-65
2022/04/02 01:49:30;;;;;;;13.32;4.70;;;;;;;;;;5091518;28;20413;-66
2022/04/02 01:51:56;;;;;;;13.35;4.80;;;;;;;;;;5073316;28;20194;-66
2022/04/02 01:54:22;;;;;;;11.50;4.72;;;;;;;;;;5091407;28;20052;-65
2022/04/02 01:56:48;;;;;;;13.02;4.35;;;;;;;;;;5091736;28;20056;-65
2022/04/02 01:59:14;;;;;;;11.50;4.50;;;;;;;;;;5091138;28;20123;-65
2022/04/02 02:01:41;;;;;;;10.48;4.35;;;;;;;;;;5091083;28;20368;-65
2022/04/02 02:04:07;;;;;;;15.25;4.43;;;;;;;;;;5091712;28;20044;-65
2022/04/02 02:06:38;;;;;;;12.30;4.65;;;;;;;;;;5090551;28;20055;-65
2022/04/02 02:09:06;;;;;;;11.48;4.53;;;;;;;;;;5090232;28;20074;-65
2022/04/02 02:11:32;;;;;;;13.32;4.50;;;;;;;;;;5091000;28;20044;-65
2022/04/02 02:13:58;;;;;;;11.07;4.95;;;;;;;;;;5073148;28;20060;-65
2022/04/02 02:16:24;;;;;;;;;;;;;;;;;;5091456;28;20048;-65
2022/04/02 02:18:51;;;;;;;14.55;4.50;;;;;;;;;;5091216;28;19939;-65
2022/04/02 02:21:17;;;;;;;11.30;4.30;;;;;;;;;;5089405;28;20094;-65
2022/04/02 02:23:43;;;;;;;11.27;4.65;;;;;;;;;;5089636;28;20081;-66
2022/04/02 02:26:10;;;;;;;13.90;4.78;;;;;;;;;;5090980;28;20044;-65
2022/04/02 02:28:36;;;;;;;12.75;4.75;;;;;;;;;;5090740;28;20055;-65
2022/04/02 02:31:02;;;;;;;12.07;4.53;;;;;;;;;;5090958;28;20063;-65
2022/04/02 02:36:12;;;;;;;12.93;4.53;;;;;;;;;;5091103;28;20455;-65
2022/04/02 02:38:39;;;;;;;10.32;4.28;;;;;;;;;;5090667;28;20052;-65
2022/04/02 02:41:07;;;;;;;11.98;4.43;;;;;;;;;;5089518;28;20047;-65
2022/04/02 02:43:33;;;;;;;11.00;4.40;;;;;;;;;;5090395;28;20120;-64
2022/04/02 02:45:59;;;;;;;12.13;4.50;;;;;;;;;;5090812;28;20059;-65
2022/04/02 02:48:25;;;;;;;16.08;4.88;;;;;;;;;;5090614;28;20040;-65
2022/04/02 02:50:51;;;;;;;13.05;4.75;;;;;;;;;;5089496;28;20135;-66
2022/04/02 02:53:17;;;;;;;12.20;4.57;;;;;;;;;;5090256;28;20136;-65
2022/04/02 02:55:44;;;;;;;12.40;4.93;;;;;;;;;;5090707;28;20067;-65
2022/04/02 02:58:10;;;;;;;23.92;5.47;;;;;;;;;;5090449;28;20148;-65
2022/04/02 03:00:38;;;;;;;12.70;4.97;;;;;;;;;;5090200;28;20459;-65
2022/04/02 03:03:04;;;;;;;13.82;4.78;;;;;;;;;;5090164;28;20060;-65
2022/04/02 03:05:30;;;;;;;12.10;4.80;;;;;;;;;;5089887;28;20054;-65
2022/04/02 03:08:05;;;;;;;11.32;5.18;;;;;;;;;;5090430;28;20496;-65
2022/04/02 03:10:31;;;;;;;14.73;4.75;;;;;;;;;;5089840;28;20395;-65
2022/04/02 03:12:59;;;;;;;13.38;5.13;;;;;;;;;;5090322;28;20177;-66
2022/04/02 03:15:25;;;;;;;14.75;4.93;;;;;;;;;;5089658;28;20139;-65
2022/04/02 03:17:52;;;;;;;13.68;5.05;;;;;;;;;;5089989;28;20130;-65
2022/04/02 03:20:22;;;;;;;13.40;4.65;;;;;;;;;;5087607;28;20120;-65
2022/04/02 03:22:50;;;;;;;12.30;4.88;;;;;;;;;;5089970;28;20059;-65
2022/04/02 03:25:17;;;;;;;12.20;4.97;;;;;;;;;;5090023;28;20052;-65
2022/04/02 03:27:44;;;;;;;16.52;4.80;;;;;;;;;;5089595;28;20039;-65
2022/04/02 03:30:11;;;;;;;11.73;5.20;;;;;;;;;;5089858;28;20115;-65
2022/04/02 03:32:38;;;;;;;13.05;4.93;;;;;;;;;;5089539;28;20165;-65
2022/04/02 03:35:04;;;;;;;12.80;4.32;;;;;;;;;;5089700;28;20048;-65
2022/04/02 03:37:31;;;;;;;;;;;;;;;;;;5089609;28;20498;-65
2022/04/02 03:39:57;;;;;;;11.23;4.20;;;;;;;;;;5089664;28;19931;-65
2022/04/02 03:42:23;;;;;;;11.48;4.70;;;;;;;;;;5089235;28;20222;-66
2022/04/02 03:44:49;;;;;;;11.38;4.40;;;;;;;;;;5089718;28;20052;-65
2022/04/02 03:47:16;;;;;;;10.25;4.15;;;;;;;;;;5088189;28;20131;-65
2022/04/02 03:49:43;;;;;;;12.23;4.50;;;;;;;;;;5088949;28;20479;-65
2022/04/02 03:52:09;;;;;;;12.38;3.95;;;;;;;;;;5089430;28;20459;-65
2022/04/02 03:54:36;;;;;;;11.90;3.85;;;;;;;;;;5089410;28;20043;-65
2022/04/02 03:57:02;;;;;;;;;;;;;;;;;;5089769;28;20048;-65
2022/04/02 03:59:28;;;;;;;10.45;3.78;;;;;;;;;;5089049;28;19928;-65
2022/04/02 04:01:54;;;;;;;11.48;4.18;;;;;;;;;;5088075;28;20075;-65
2022/04/02 04:04:20;;;;;;;10.95;3.70;;;;;;;;;;5089466;28;20071;-65
2022/04/02 04:06:49;;;;;;;10.85;3.97;;;;;;;;;;5088968;28;20069;-65
2022/04/02 04:09:15;;;;;;;13.13;3.80;;;;;;;;;;5089213;28;20438;-65
2022/04/02 04:11:41;;;;;;;11.88;3.85;;;;;;;;;;5088914;28;20067;-65
2022/04/02 04:14:07;;;;;;;9.35;3.72;;;;;;;;;;5089184;28;20206;-65
2022/04/02 04:16:34;;;;;;;11.32;3.92;;;;;;;;;;5088546;28;20063;-65
2022/04/02 04:19:00;;;;;;;12.35;3.90;;;;;;;;;;5089233;28;20059;-65
2022/04/02 04:21:26;;;;;;;11.00;3.53;;;;;;;;;;5089011;28;20070;-65
2022/04/02 04:23:52;;;;;;;12.57;3.67;;;;;;;;;;5089151;28;20131;-65
2022/04/02 04:26:18;;;;;;;11.82;3.95;;;;;;;;;;5089044;28;20055;-66
2022/04/02 04:28:45;;;;;;;12.45;4.10;;;;;;;;;;5088430;28;20062;-65
2022/04/02 04:31:11;;;;;;;12.25;4.05;;;;;;;;;;5089639;28;20447;-65
2022/04/02 04:33:40;;;;;;;9.85;4.53;;;;;;;;;;5092459;28;20478;-64
2022/04/02 04:36:06;;;;;;;9.52;3.85;;;;;;;;;;5093240;28;20044;-65
2022/04/02 04:38:32;;;;;;;12.93;4.03;;;;;;;;;;5092628;28;20096;-66
2022/04/02 04:40:59;;;;;;;10.98;3.47;;;;;;;;;;5092790;28;20380;-65
2022/04/02 04:43:26;;;;;;;10.20;3.85;;;;;;;;;;5092914;28;20062;-65
2022/04/02 04:45:52;;;;;;;;;;;;;;;;;;5092871;28;20128;-65
2022/04/02 04:48:20;;;;;;;15.25;4.63;;;;;;;;;;5091407;28;19924;-66
2022/04/02 04:50:46;;;;;;;11.80;3.70;;;;;;;;;;5091003;28;20036;-65
2022/04/02 04:53:13;;;;;;;10.52;3.90;;;;;;;;;;5091508;28;20195;-66
2022/04/02 04:55:40;;;;;;;12.68;5.13;;;;;;;;;;5090715;28;20059;-65
2022/04/02 04:58:06;;;;;;;14.23;4.60;;;;;;;;;;5092510;28;20380;-63
2022/04/02 05:00:35;;;;;;;12.45;4.90;;;;;;;;;;5090309;28;20189;-65
2022/04/02 05:03:01;;;;;;;12.18;4.28;;;;;;;;;;5090791;28;20404;-65
2022/04/02 05:05:28;;;;;;;12.43;4.82;;;;;;;;;;5092642;28;20139;-65
2022/04/02 05:07:55;;;;;;;17.13;5.15;;;;;;;;;;5091273;28;20356;-65
2022/04/02 05:10:21;;;;;;;17.17;4.95;;;;;;;;;;5092018;28;20044;-65
2022/04/02 05:12:47;;;;;;;10.68;4.13;;;;;;;;;;5091415;28;20055;-65
2022/04/02 05:15:13;;;;;;;13.23;4.38;;;;;;;;;;5089834;28;20440;-66
2022/04/02 05:17:40;;;;;;;14.13;4.85;;;;;;;;;;5090502;28;20115;-66
2022/04/02 05:20:12;;;;;;;12.93;5.10;;;;;;;;;;5090496;28;20111;-66
2022/04/02 05:22:38;;;;;;;12.02;4.70;;;;;;;;;;5090119;28;20070;-64
2022/04/02 05:25:05;;;;;;;14.13;4.80;;;;;;;;;;5072254;28;20139;-66
2022/04/02 05:27:33;;;;;;;12.75;4.93;;;;;;;;;;5090553;28;20079;-66
2022/04/02 05:30:00;;;;;;;12.93;4.97;;;;;;;;;;5090741;28;20126;-66
2022/04/02 05:32:30;;;;;;;11.95;4.47;;;;;;;;;;5091078;28;20101;-66
2022/04/02 05:34:56;;;;;;;14.23;4.95;;;;;;;;;;5090216;28;20048;-66
2022/04/02 05:37:23;;;;;;;12.93;4.60;;;;;;;;;;5090802;28;20044;-66
2022/04/02 05:39:49;;;;;;;12.45;4.72;;;;;;;;;;5089902;28;20159;-66
2022/04/02 05:42:15;;;;;;;13.00;4.90;;;;;;;;;;5090213;28;20048;-65
2022/04/02 05:44:41;;;;;;;13.57;5.10;;;;;;;;;;5090131;28;20056;-66
2022/04/02 05:47:09;;;;;;;11.52;4.90;;;;;;;;;;5089962;28;20306;-66
2022/04/02 05:49:35;;;;;;;11.80;4.93;;;;;;;;;;5090678;28;20123;-66
2022/04/02 05:52:01;;;;;;;12.70;5.03;;;;;;;;;;5088354;28;20058;-66
2022/04/02 05:54:27;;;;;;;12.35;4.70;;;;;;;;;;5088478;28;20186;-66
2022/04/02 05:56:54;;;;;;;11.70;4.93;;;;;;;;;;5090202;28;20055;-67
2022/04/02 05:59:20;;;;;;;11.30;4.45;;;;;;;;;;5089535;28;20048;-67
2022/04/02 06:01:47;;;;;;;;;;;;;;;;;;5088328;28;20044;-67
2022/04/02 06:04:13;;;;;;;12.52;4.10;;;;;;;;;;5089643;28;19978;-67
2022/04/02 06:06:39;;;;;;;10.35;4.30;;;;;;;;;;5089779;28;20048;-67
2022/04/02 06:09:05;;;;;;;12.35;4.30;;;;;;;;;;5089560;28;20118;-66
2022/04/02 06:11:32;;;;;;;12.23;4.43;;;;;;;;;;5087630;28;20127;-67
2022/04/02 06:13:58;;;;;;;13.65;4.63;;;;;;;;;;5087322;28;20120;-65
2022/04/02 06:16:25;;;;;;;13.00;5.05;;;;;;;;;;5089526;28;20040;-63
2022/04/02 06:18:52;;;;;;;12.05;4.22;;;;;;;;;;5088831;28;20531;-64
2022/04/02 06:21:19;;;;;;;13.52;4.43;;;;;;;;;;5087742;28;20104;-64
2022/04/02 06:23:45;;;;;;;10.90;4.25;;;;;;;;;;5070288;28;20040;-63
2022/04/02 06:26:11;;;;;;;10.52;4.30;;;;;;;;;;5089021;28;20070;-62
2022/04/02 06:28:37;;;;;;;11.70;4.20;;;;;;;;;;5087950;28;20040;-65
2022/04/02 06:31:03;;;;;;;;;;;;;;;;;;5088896;28;20052;-63
2022/04/02 06:33:29;;;;;;;12.88;4.50;;;;;;;;;;5089055;28;19924;-63
2022/04/02 06:35:55;;;;;;;10.00;4.22;;;;;;;;;;5087045;28;20156;-64
2022/04/02 06:38:22;;;;;;;15.73;4.55;;;;;;;;;;5088190;28;20506;-64
2022/04/02 06:40:48;;;;;;;12.77;4.30;;;;;;;;;;5087468;28;20527;-64
2022/04/02 06:43:14;;;;;;;9.23;4.15;;;;;;;;;;5087912;28;20138;-64
2022/04/02 06:45:40;;;;;;;13.70;4.68;;;;;;;;;;5088644;28;20056;-64
2022/04/02 06:48:06;;;;;;;12.40;4.45;;;;;;;;;;5088512;28;20472;-62
2022/04/02 06:50:32;;;;;;;10.68;4.05;;;;;;;;;;5089025;28;20149;-63
2022/04/02 06:52:58;;;;;;;11.65;4.20;;;;;;;;;;5086644;28;20098;-65
2022/04/02 06:55:24;;;;;;;11.43;3.70;;;;;;;;;;5076593;28;20429;-65
2022/04/02 06:57:53;;;;;;;12.20;4.50;;;;;;;;;;5076802;28;20452;-65
2022/04/02 07:00:22;;;;;;;10.70;4.32;;;;;;;;;;5088877;28;20040;-64
2022/04/02 07:02:49;;;;;;;10.48;4.18;;;;;;;;;;5088392;28;20105;-63
2022/04/02 07:05:15;;;;;;;13.80;4.22;;;;;;;;;;5088414;28;20505;-64
2022/04/02 07:07:42;;;;;;;11.05;4.07;;;;;;;;;;5088805;28;20051;-65
2022/04/02 07:10:09;;;;;;;10.38;4.20;;;;;;;;;;5076165;28;20199;-64
2022/04/02 07:12:34;;;;;;;;;;;;;;;;;;5068668;28;20123;-62
2022/04/02 07:15:01;;;;;;;12.43;4.45;;;;;;;;;;5103710;27;20064;-63
2022/04/02 07:17:30;;;;;;;13.50;4.30;;;;;;;;;;5091700;28;20058;-66
2022/04/02 07:19:57;;;;;;;10.98;3.80;;;;;;;;;;5086254;28;20090;-68
2022/04/02 07:22:23;;;;;;;10.95;4.05;;;;;;;;;;5088323;28;20044;-64
2022/04/02 07:24:54;;;;;;;9.82;3.72;;;;;;;;;;5088336;28;20128;-66
2022/04/02 07:27:24;;;;;;;10.65;3.55;;;;;;;;;;5087966;28;20409;-66
2022/04/02 07:29:53;;;;;;;7.43;2.92;;;;;;;;;;5121021;27;20056;-67
2022/04/02 07:32:19;;;;;;;8.57;2.80;;;;;;;;;;5087395;28;20059;-67
2022/04/02 07:34:45;;;;;;;;;;;;;;;;;;5088398;28;20079;-67
2022/04/02 07:37:40;;;;;;;9.43;3.28;;;;;;;;;;5078915;28;20047;-65
2022/04/02 07:40:09;;;;;;;9.65;3.33;;;;;;;;;;5066680;28;20044;-63
2022/04/02 07:42:39;;;;;;;10.18;3.60;;;;;;;;;;5065852;28;20067;-64
2022/04/02 07:45:05;;;;;;;9.63;3.47;;;;;;;;;;5066781;28;20088;-65
2022/04/02 07:47:32;;;;;;;8.80;3.63;;;;;;;;;;5067594;28;20158;-65
2022/04/02 07:50:03;;;;;;;12.23;4.10;;;;;;;;;;5066809;28;20066;-66
2022/04/02 07:52:30;;;;;;;9.48;3.47;;;;;;;;;;5065684;28;20052;-66
2022/04/02 07:54:58;;;;;;;7.50;3.05;;;;;;;;;;5067014;28;20075;-66
2022/04/02 07:57:27;;;;;;;11.52;3.47;;;;;;;;;;5067389;28;20049;-66
2022/04/02 08:00:03;;;;;;;10.15;3.53;;;;;;;;;;5067461;28;20048;-65
2022/04/02 08:02:36;;;;;;;11.50;3.80;;;;;;;;;;5067408;28;20121;-66
2022/04/02 08:05:03;;;;;;;12.90;3.33;;;;;;;;;;5082356;28;20044;-66
2022/04/02 08:07:30;;;;;;;9.95;3.45;;;;;;;;;;5067102;28;20056;-66
2022/04/02 08:09:57;;;;;;;10.18;3.35;;;;;;;;;;5065914;28;20064;-67
2022/04/02 08:12:25;;;;;;;12.02;3.10;;;;;;;;;;5066997;28;20132;-66
2022/04/02 08:14:52;;;;;;;7.80;2.80;;;;;;;;;;5067555;28;20044;-67
2022/04/02 08:17:22;;;;;;;9.63;3.45;;;;;;;;;;5066898;28;20110;-66
2022/04/02 08:19:51;;;;;;;10.23;3.22;;;;;;;;;;5067316;28;20443;-67
2022/04/02 08:22:17;;;;;;;8.93;3.10;;;;;;;;;;5066666;28;20044;-65
2022/04/02 08:24:44;;;;;;;13.32;3.28;;;;;;;;;;5067493;28;20040;-65
2022/04/02 08:27:30;;;;;;;9.38;3.17;;;;;;;;;;5068544;28;20135;-63
2022/04/02 08:30:02;;;;;;;10.15;3.03;;;;;;;;;;5057965;28;20385;-65
2022/04/02 08:32:50;;;;;;;12.48;3.50;;;;;;;;;;5067085;28;20170;-67
2022/04/02 08:35:20;;;;;;;10.40;3.00;;;;;;;;;;5066250;28;20434;-65
2022/04/02 08:38:05;;;;;;;12.80;3.15;;;;;;;;;;5066986;28;20071;-65
2022/04/02 08:40:46;;;;;;;9.70;3.15;;;;;;;;;;5066787;28;20124;-65
2022/04/02 08:43:12;;;;;;;12.20;3.17;;;;;;;;;;5064556;28;20100;-68
2022/04/02 08:45:51;;;;;;;11.05;3.13;;;;;;;;;;5066610;28;20480;-67
2022/04/02 08:48:30;;;;;;;10.65;3.00;;;;;;;;;;5066187;28;20131;-65
2022/04/02 08:51:14;;;;;;;11.55;3.22;;;;;;;;;;5066397;28;20098;-65
2022/04/02 08:53:49;;;;;;;9.95;3.10;;;;;;;;;;5066887;28;20040;-63
2022/04/02 08:56:24;;;;;;;9.05;2.95;;;;;;;;;;5066358;28;20063;-68
2022/04/02 08:59:00;;;;;;;9.10;3.28;;;;;;;;;;5066652;28;20044;-67
2022/04/02 09:01:28;;;;;;;9.52;2.80;;;;;;;;;;5066178;28;20249;-68
2022/04/02 09:04:03;;;;;;;13.27;3.10;;;;;;;;;;5066527;28;20112;-69
2022/04/02 09:06:36;;;;;;;11.35;3.58;;;;;;;;;;5064612;28;20048;-67
2022/04/02 09:09:16;;;;;;;10.48;2.97;;;;;;;;;;5066020;28;20084;-63
2022/04/02 09:11:42;;;;;;;10.57;2.95;;;;;;;;;;5066467;28;20081;-66
2022/04/02 09:14:12;;;;;;;9.35;2.53;;;;;;;;;;5066425;28;20139;-67
2022/04/02 09:16:57;;;;;;;8.88;2.70;;;;;;;;;;5066599;28;20142;-68
2022/04/02 09:19:30;;;;;;;10.18;2.70;;;;;;;;;;5069704;28;20148;-66
2022/04/02 09:22:00;;;;;;;9.82;2.83;;;;;;;;;;5068178;28;20044;-66
2022/04/02 09:24:35;;;;;;;8.27;2.83;;;;;;;;;;5069634;28;20463;-68
2022/04/02 09:27:24;;;;;;;10.40;3.13;;;;;;;;;;5069750;28;20059;-65
2022/04/02 09:30:15;;;;;;;9.68;2.92;;;;;;;;;;5068417;28;20437;-68
2022/04/02 09:32:41;;;;;;;8.50;2.85;;;;;;;;;;5069887;28;20124;-66
2022/04/02 09:35:26;;;;;;;8.68;2.78;;;;;;;;;;5069214;28;20100;-66
2022/04/02 09:38:28;;;;;;;6.80;2.47;;;;;;;;;;5069387;28;20114;-68
2022/04/02 09:41:00;;;;;;;8.90;2.78;;;;;;;;;;5067601;28;20060;-66
2022/04/02 09:43:31;;;;;;;12.40;3.05;;;;;;;;;;5068739;28;20067;-70
2022/04/02 09:46:14;;;;;;;13.25;3.10;;;;;;;;;;5069609;28;20052;-66
2022/04/02 09:49:19;;;;;;;9.50;3.25;;;;;;;;;;5069432;28;20400;-66
2022/04/02 09:51:53;;;;;;;12.32;3.30;;;;;;;;;;5067114;28;20083;-66
2022/04/02 09:54:29;;;;;;;12.70;2.70;;;;;;;;;;5066358;28;20049;-67
2022/04/02 09:56:59;;;;;;;14.82;3.58;;;;;;;;;;5059634;28;20060;-68
2022/04/02 09:59:37;;;;;;;9.05;3.00;;;;;;;;;;5069008;28;20098;-64
2022/04/02 10:02:04;;;;;;;11.70;3.00;;;;;;;;;;5067996;28;20460;-66
2022/04/02 10:04:49;;;;;;;9.35;3.00;;;;;;;;;;5068953;28;20044;-66
2022/04/02 10:07:18;;;;;;;11.77;3.25;;;;;;;;;;5068977;28;20059;-65
2022/04/02 10:09:49;;;;;;;9.77;2.97;;;;;;;;;;5069278;28;20059;-63
2022/04/02 10:12:16;;;;;;;12.15;4.10;;;;;;;;;;5069224;28;20047;-66
2022/04/02 10:14:42;;;;;;;11.88;5.22;;;;;;;;;;5068607;28;20052;-65
2022/04/02 10:17:08;;;;;;;12.30;3.90;;;;;;;;;;5068812;28;20381;-66
2022/04/02 10:19:39;;;;;;;10.70;3.72;;;;;;;;;;5068555;28;20049;-65
2022/04/02 10:22:07;;;;;;;11.43;4.25;;;;;;;;;;5070025;28;20049;-66
2022/04/02 10:24:48;;;;;;;11.43;4.15;;;;;;;;;;5068604;28;20071;-67
2022/04/02 10:27:31;;;;;;;11.35;4.28;;;;;;;;;;5081228;28;20040;-65
2022/04/02 10:30:00;;;;;;;8.38;3.33;;;;;;;;;;5080617;28;20044;-68
2022/04/02 10:32:45;;;;;;;8.90;4.28;;;;;;;;;;5070062;28;20532;-63
2022/04/02 10:35:13;;;;;;;14.13;3.35;;;;;;;;;;5073895;28;20194;-63
2022/04/02 10:37:43;;;;;;;12.15;3.80;;;;;;;;;;5071637;28;20052;-67
2022/04/02 10:40:13;;;;;;;11.63;3.13;;;;;;;;;;5076394;28;20048;-62
2022/04/02 10:42:40;;;;;;;8.60;3.50;;;;;;;;;;5085278;28;20464;-64
2022/04/02 10:45:10;;;;;;;11.50;3.78;;;;;;;;;;5082735;28;20066;-64
2022/04/02 10:47:42;;;;;;;9.20;2.92;;;;;;;;;;5074724;28;20461;-65
2022/04/02 10:50:08;;;;;;;10.45;3.45;;;;;;;;;;5079511;28;20352;-66
2022/04/02 10:52:36;;;;;;;9.57;3.53;;;;;;;;;;5070211;28;20393;-64
2022/04/02 10:55:03;;;;;;;9.73;3.03;;;;;;;;;;5092772;28;20153;-64
2022/04/02 10:57:29;;;;;;;11.82;3.03;;;;;;;;;;5070244;28;20048;-68
2022/04/02 10:59:55;;;;;;;;;;;;;;;;;;5073723;28;20040;-66
2022/04/02 11:02:22;;;;;;;9.57;3.20;;;;;;;;;;5080164;28;19985;-65
2022/04/02 11:04:57;;;;;;;8.73;3.47;;;;;;;;;;5084295;28;20098;-67
2022/04/02 11:07:29;;;;;;;10.68;3.95;;;;;;;;;;5074204;28;20154;-67
2022/04/02 11:09:57;;;;;;;8.18;2.95;;;;;;;;;;5083620;28;20122;-67
2022/04/02 11:12:31;;;;;;;10.65;3.28;;;;;;;;;;5077046;28;20043;-66
2022/04/02 11:15:08;;;;;;;11.15;2.70;;;;;;;;;;5087327;28;20044;-64
2022/04/02 11:17:35;;;;;;;9.43;3.00;;;;;;;;;;5077151;28;20052;-69
2022/04/02 11:20:10;;;;;;;11.88;2.90;;;;;;;;;;5085671;28;20139;-65
2022/04/02 11:22:36;;;;;;;9.07;2.85;;;;;;;;;;5083969;28;20093;-67
2022/04/02 11:25:03;;;;;;;6.78;2.60;;;;;;;;;;5071719;28;20048;-67
2022/04/02 11:27:29;;;;;;;10.68;2.60;;;;;;;;;;5080509;28;20123;-65
2022/04/02 11:30:01;;;;;;;8.40;3.00;;;;;;;;;;5084871;28;20036;-67
2022/04/02 11:32:29;;;;;;;9.63;2.85;;;;;;;;;;5086287;28;20059;-68
2022/04/02 11:34:56;;;;;;;8.32;2.67;;;;;;;;;;5066895;28;20044;-64
2022/04/02 11:37:30;;;;;;;8.38;2.85;;;;;;;;;;5074146;28;20117;-67
2022/04/02 11:40:00;;;;;;;9.55;2.90;;;;;;;;;;5078559;28;20102;-63
2022/04/02 11:42:27;;;;;;;11.85;3.10;;;;;;;;;;5081159;28;20051;-67
2022/04/02 11:44:54;;;;;;;9.10;2.90;;;;;;;;;;5082543;28;20464;-68
2022/04/02 11:47:20;;;;;;;;;;;;;;;;;;5085437;28;20056;-63
2022/04/02 11:49:46;;;;;;;8.35;2.60;;;;;;;;;;5086077;28;19946;-68
2022/04/02 11:52:13;;;;;;;8.88;2.67;;;;;;;;;;5085096;28;20169;-65
2022/04/02 11:54:52;;;;;;;8.90;3.20;;;;;;;;;;5084706;28;20052;-64
2022/04/02 11:57:20;;;;;;;10.30;3.33;;;;;;;;;;5087145;28;20083;-66
2022/04/02 11:59:50;;;;;;;11.40;3.05;;;;;;;;;;5084297;28;20059;-66
2022/04/02 12:02:35;;;;;;;8.93;2.90;;;;;;;;;;5080107;28;20190;-69
2022/04/02 12:05:02;;;;;;;8.15;3.22;;;;;;;;;;5066809;28;20056;-64
2022/04/02 12:07:44;;;;;;;10.00;2.83;;;;;;;;;;5080334;28;20044;-67
2022/04/02 12:10:17;;;;;;;10.75;3.40;;;;;;;;;;5077006;28;20043;-64
2022/04/02 12:12:44;;;;;;;9.20;3.15;;;;;;;;;;5083592;28;20124;-67
2022/04/02 12:15:11;;;;;;;9.13;2.90;;;;;;;;;;5081711;28;20041;-68
2022/04/02 12:17:39;;;;;;;9.57;2.70;;;;;;;;;;5066583;28;20103;-65
2022/04/02 12:20:07;;;;;;;9.52;3.00;;;;;;;;;;5066558;28;20441;-65
2022/04/02 12:22:36;;;;;;;7.22;2.58;;;;;;;;;;5078823;28;20055;-64
2022/04/02 12:25:07;;;;;;;10.75;2.92;;;;;;;;;;5086475;28;20067;-66
2022/04/02 12:27:38;;;;;;;11.90;2.85;;;;;;;;;;5086463;28;20063;-65
2022/04/02 12:30:09;;;;;;;8.18;2.90;;;;;;;;;;5085369;28;20497;-67
2022/04/02 12:32:44;;;;;;;10.00;2.85;;;;;;;;;;5083069;28;20044;-69
2022/04/02 12:35:15;;;;;;;10.32;2.55;;;;;;;;;;5086409;28;20453;-70
2022/04/02 12:37:51;;;;;;;8.73;2.55;;;;;;;;;;5085387;28;20052;-68
2022/04/02 12:40:20;;;;;;;10.45;2.70;;;;;;;;;;5085961;28;20465;-66
2022/04/02 12:42:46;;;;;;;9.15;2.60;;;;;;;;;;5076481;28;20052;-65
2022/04/02 12:45:18;;;;;;;11.13;3.05;;;;;;;;;;5086432;28;20048;-68
2022/04/02 12:48:03;;;;;;;12.50;2.83;;;;;;;;;;5086275;28;20058;-67
2022/04/02 12:50:31;;;;;;;10.10;2.78;;;;;;;;;;5087055;28;20474;-66
2022/04/02 12:52:57;;;;;;;12.93;3.28;;;;;;;;;;5085507;28;20048;-67
2022/04/02 12:55:25;;;;;;;7.90;2.60;;;;;;;;;;5085893;28;20044;-68
2022/04/02 12:58:05;;;;;;;8.85;2.45;;;;;;;;;;5087393;28;20488;-67
2022/04/02 13:00:31;;;;;;;10.80;2.60;;;;;;;;;;5101227;28;20053;-65
2022/04/02 13:02:59;;;;;;;7.88;2.55;;;;;;;;;;5088516;28;20058;-67
2022/04/02 13:05:27;;;;;;;8.57;2.53;;;;;;;;;;5090132;28;20040;-65
2022/04/02 13:08:16;;;;;;;8.13;2.72;;;;;;;;;;5090112;28;20190;-71
2022/04/02 13:10:45;;;;;;;7.60;2.80;;;;;;;;;;5087335;28;20055;-67
2022/04/02 13:13:15;;;;;;;9.07;2.65;;;;;;;;;;5081415;28;20063;-66
2022/04/02 13:15:52;;;;;;;9.32;2.50;;;;;;;;;;5080276;28;20124;-73
2022/04/02 13:21:09;;;;;;;8.02;2.58;;;;;;;;;;5087015;28;20044;-65
2022/04/02 13:23:38;;;;;;;7.75;2.45;;;;;;;;;;5090439;28;20440;-66
2022/04/02 13:26:05;;;;;;;8.02;2.40;;;;;;;;;;5088217;28;20036;-66
2022/04/02 13:28:50;;;;;;;9.55;2.40;;;;;;;;;;5054089;28;20432;-66
2022/04/02 13:31:18;;;;;;;8.98;2.30;;;;;;;;;;5089546;28;20346;-67
2022/04/02 13:33:50;;;;;;;6.70;2.22;;;;;;;;;;5074585;28;20044;-66
2022/04/02 13:36:16;;;;;;;10.10;2.90;;;;;;;;;;5087185;28;20150;-67
2022/04/02 13:38:49;;;;;;;7.43;2.38;;;;;;;;;;5088565;28;20056;-67
2022/04/02 13:41:22;;;;;;;13.30;2.83;;;;;;;;;;5087063;28;20054;-67
2022/04/02 13:43:58;;;;;;;10.68;2.88;;;;;;;;;;5083628;28;20209;-67
2022/04/02 13:46:47;;;;;;;8.68;2.63;;;;;;;;;;5081876;28;20052;-66
2022/04/02 13:49:19;;;;;;;9.20;2.80;;;;;;;;;;5082546;28;20480;-66
2022/04/02 13:51:57;;;;;;;7.93;2.67;;;;;;;;;;5080865;28;20041;-65
2022/04/02 13:54:29;;;;;;;7.53;2.70;;;;;;;;;;5084575;28;20044;-67
2022/04/02 13:57:02;;;;;;;8.85;2.63;;;;;;;;;;5087501;28;20566;-73
2022/04/02 13:59:33;;;;;;;7.35;2.55;;;;;;;;;;5087396;28;20062;-67
2022/04/02 14:01:59;;;;;;;7.15;2.40;;;;;;;;;;5084328;28;20515;-68
2022/04/02 14:04:32;;;;;;;6.95;2.45;;;;;;;;;;5089101;28;20044;-69
2022/04/02 14:07:03;;;;;;;7.95;2.75;;;;;;;;;;5086683;28;20051;-70
2022/04/02 14:09:30;;;;;;;8.98;2.85;;;;;;;;;;5077624;28;20045;-66
2022/04/02 14:11:59;;;;;;;7.97;2.65;;;;;;;;;;5082710;28;20115;-68
2022/04/02 14:14:31;;;;;;;7.55;2.67;;;;;;;;;;5085509;28;20112;-68
2022/04/02 14:17:08;;;;;;;8.20;2.78;;;;;;;;;;5087994;28;20139;-66
2022/04/02 14:20:00;;;;;;;8.75;2.60;;;;;;;;;;5069010;28;20082;-64
2022/04/02 14:22:26;;;;;;;9.55;2.67;;;;;;;;;;5076546;28;20048;-67
2022/04/02 14:25:02;;;;;;;9.30;2.80;;;;;;;;;;5086600;28;20085;-66
2022/04/02 14:27:43;;;;;;;9.15;2.60;;;;;;;;;;5085810;28;20519;-67
2022/04/02 14:30:31;;;;;;;9.88;2.50;;;;;;;;;;5084994;28;20105;-65
2022/04/02 14:32:59;;;;;;;8.50;2.40;;;;;;;;;;5084883;28;20048;-71
2022/04/02 14:35:34;;;;;;;8.15;2.92;;;;;;;;;;5086462;28;20044;-70
2022/04/02 14:38:12;;;;;;;10.63;2.70;;;;;;;;;;5081413;28;20059;-69
2022/04/02 14:41:05;;;;;;;9.57;2.55;;;;;;;;;;5085437;28;20095;-69
2022/04/02 14:43:46;;;;;;;12.27;2.53;;;;;;;;;;5087219;28;20058;-68
2022/04/02 14:46:31;;;;;;;7.03;2.60;;;;;;;;;;5086660;28;20059;-68
2022/04/02 14:49:05;;;;;;;8.02;2.47;;;;;;;;;;5086573;28;20510;-68
2022/04/02 14:51:49;;;;;;;10.60;2.40;;;;;;;;;;5081759;28;20467;-67
2022/04/02 14:54:37;;;;;;;13.85;3.13;;;;;;;;;;5081490;28;20718;-66
2022/04/02 14:57:06;;;;;;;8.18;3.05;;;;;;;;;;5100985;27;20111;-68
2022/04/02 14:59:51;;;;;;;9.77;2.58;;;;;;;;;;5079632;28;20092;-66